Aérodrome :







RETROUVEZ-NOUS SUR...

 
LOGIN :

S'inscrire | Disclaimer

   EN    FR    IT 

 









Légende :    VFR   VFR Marginal   IFR   IFR Intensif   IFR Très Intensif
Visi : 
Plafond : 
>= 8 km
>= 3000ft
5 à 8 km
1000 à 3000 ft
1500m à 5 km
500 à 1000 ft
800 à 1500m
200 à 500 ft
< 800m
< 200 ft
Symboles :   Orages  Brouillard  Fortes neiges  Fortes précipitations  Vent > 20 kt






- Altitude de l'aérodrome : 352 ft


KAUG - Augusta State

DERNIER METAR :
  • 141553Z AUTO 03007KT 10SM OVC011 20/18 A2997 RMK AO2 LTG DSNT SW AND W RAB13E22 SLP148 P0000 T02000178

METARs EXPIRÉS :
  • 141453Z AUTO 01006KT 10SM OVC008 19/18 A2995 RMK AO2 LTG DSNT W SLP142 T01940178 53010
  • 141353Z AUTO 02010KT 10SM OVC007 19/17 A2994 RMK AO2 SLP138 T01890172

TAF KAUG
Valide du 14 à 15h jusqu'au 15 à 12h UTC


141507Z 1415/1512 01007KT P6SM BKN007
FM141600 02008KT 6SM SHRA VCTS BKN015CB
FM150700 35006KT 3SM BR OVC005
FIR KZBW / Amérique du Nord



MET'MAP, la Météo Aéronautique d'un coup d'oeil ! - Copyright ORBIFLY Décembre 2007 - Disclaimer

ORBIFLY MET'MAP TEAM :

Programmation & Développement : Alexandra Zaïnal
Sur une idée originale de : Baudouin d'Aumeries
Assistance à la programmation : Marc-Olivier Méhu
Soutien technique & logistique : Manuel Goepfert

Contact : metmap@orbifly.com




SOURCES & CREDITS :

   NOAA